createdAt,value
2019-01-20T00:04:17.705Z,34.17
2019-01-20T00:09:17.306Z,35.50
2019-01-20T00:14:16.874Z,26.67
2019-01-20T00:19:16.445Z,37.93
2019-01-20T00:24:15.990Z,26.23
2019-01-20T00:29:15.551Z,30.07
2019-01-20T00:34:15.200Z,30.93
2019-01-20T00:39:14.914Z,28.77
2019-01-20T00:44:14.594Z,34.60
2019-01-20T00:49:14.199Z,30.30
2019-01-20T00:54:14.100Z,30.63
2019-01-20T00:59:13.663Z,41.50
2019-01-20T01:04:13.408Z,27.07
2019-01-20T01:09:13.043Z,35.10
2019-01-20T01:14:12.605Z,28.70
2019-01-20T01:19:12.164Z,24.13
2019-01-20T01:24:11.826Z,31.40
2019-01-20T01:29:11.732Z,31.90
2019-01-20T01:34:11.303Z,24.17
2019-01-20T01:39:10.842Z,21.80
2019-01-20T01:44:10.397Z,33.03
2019-01-20T01:49:09.968Z,29.83
2019-01-20T01:54:09.540Z,43.10
2019-01-20T01:59:12.248Z,31.80
2019-01-20T02:04:10.509Z,32.10
2019-01-20T02:09:10.061Z,33.00
2019-01-20T02:14:09.803Z,30.97
2019-01-20T02:19:09.389Z,35.70
2019-01-20T02:24:08.938Z,36.30
2019-01-20T02:29:08.475Z,32.80
2019-01-20T02:34:08.130Z,31.60
2019-01-20T02:39:07.886Z,39.63
2019-01-20T02:44:07.448Z,34.07
2019-01-20T02:49:06.993Z,41.37
2019-01-20T02:54:06.556Z,36.83
2019-01-20T02:59:06.134Z,33.90
2019-01-20T03:04:05.963Z,35.63
2019-01-20T03:09:08.870Z,33.27
2019-01-20T03:14:08.445Z,42.67
2019-01-20T03:19:08.269Z,40.17
2019-01-20T03:24:07.902Z,39.83
2019-01-20T03:29:07.469Z,33.23
2019-01-20T03:34:07.103Z,25.93
2019-01-20T03:39:07.358Z,35.07
2019-01-20T03:44:06.897Z,33.57
2019-01-20T03:49:06.440Z,37.80
2019-01-20T03:54:06.159Z,29.70
2019-01-20T03:59:05.762Z,30.50
2019-01-20T04:04:05.602Z,38.60
2019-01-20T04:09:07.840Z,36.70
2019-01-20T04:14:07.530Z,37.67
2019-01-20T04:19:07.097Z,32.73
2019-01-20T04:24:06.714Z,31.47
2019-01-20T04:29:06.246Z,32.17
2019-01-20T04:34:05.884Z,35.17
2019-01-20T04:39:07.447Z,41.53
2019-01-20T04:44:07.086Z,33.80
2019-01-20T04:49:06.635Z,31.27
2019-01-20T04:54:06.700Z,34.27
2019-01-20T04:59:07.326Z,44.53
2019-01-20T05:04:06.942Z,32.23
2019-01-20T05:09:07.701Z,36.47
2019-01-20T05:14:07.434Z,38.37
2019-01-20T05:19:07.077Z,41.13
2019-01-20T05:24:06.692Z,36.87
2019-01-20T05:29:06.238Z,40.30
2019-01-20T05:34:05.799Z,41.47
2019-01-20T05:39:08.013Z,46.57
2019-01-20T05:44:07.581Z,41.03
2019-01-20T05:49:07.116Z,38.10
2019-01-20T05:54:06.730Z,44.53
2019-01-20T05:59:06.293Z,56.47
2019-01-20T06:04:05.884Z,40.43
2019-01-20T06:09:07.688Z,49.13
2019-01-20T06:14:07.226Z,41.77
2019-01-20T06:19:06.776Z,46.10
2019-01-20T06:24:06.435Z,46.80
2019-01-20T06:29:06.049Z,45.03
2019-01-20T06:34:05.633Z,44.07
2019-01-20T06:39:07.933Z,58.20
2019-01-20T06:44:07.485Z,47.80
2019-01-20T06:49:07.076Z,49.97
2019-01-20T06:54:06.633Z,40.73
2019-01-20T06:59:06.215Z,44.53
2019-01-20T07:04:05.870Z,51.10
2019-01-20T07:09:08.092Z,51.23
2019-01-20T07:14:07.737Z,61.23
2019-01-20T07:19:07.285Z,42.60
2019-01-20T07:24:06.847Z,47.97
2019-01-20T07:29:06.450Z,49.70
2019-01-20T07:34:06.090Z,40.77
2019-01-20T07:39:07.787Z,59.20
2019-01-20T07:44:07.342Z,52.77
2019-01-20T07:49:06.943Z,42.43
2019-01-20T07:54:06.577Z,43.77
2019-01-20T07:59:06.219Z,48.27
2019-01-20T08:04:05.780Z,45.53
2019-01-20T08:09:08.073Z,55.10
2019-01-20T08:14:07.852Z,51.97
2019-01-20T08:19:07.441Z,58.37
2019-01-20T08:24:07.006Z,51.67
2019-01-20T08:29:06.687Z,56.33
2019-01-20T08:34:06.449Z,52.20
2019-01-20T08:39:07.772Z,53.77
2019-01-20T08:44:07.746Z,60.90
2019-01-20T08:49:07.320Z,60.47
2019-01-20T08:54:06.885Z,51.43
2019-01-20T08:59:06.442Z,58.47
2019-01-20T09:04:05.996Z,58.13
2019-01-20T09:09:07.981Z,54.67
2019-01-20T09:14:07.559Z,54.30
2019-01-20T09:19:07.170Z,51.53
2019-01-20T09:24:06.805Z,54.70
2019-01-20T09:29:06.393Z,59.63
2019-01-20T09:34:05.958Z,53.47
2019-01-20T09:39:12.418Z,49.17
2019-01-20T09:44:12.350Z,52.63
2019-01-20T09:49:11.890Z,55.27
2019-01-20T09:54:11.463Z,59.13
2019-01-20T09:59:11.017Z,61.57
2019-01-20T10:04:10.586Z,65.57
2019-01-20T10:09:10.159Z,56.30
2019-01-20T10:14:09.772Z,54.43
2019-01-20T10:19:09.537Z,54.43
2019-01-20T10:24:09.096Z,55.27
2019-01-20T10:29:08.864Z,67.90
2019-01-20T10:34:08.448Z,57.40
2019-01-20T10:39:11.741Z,58.57
2019-01-20T10:44:11.282Z,61.93
2019-01-20T10:49:10.813Z,64.97
2019-01-20T10:54:10.420Z,62.23
2019-01-20T10:59:11.795Z,67.23
2019-01-20T11:04:11.675Z,60.73
2019-01-20T11:09:11.241Z,65.80
2019-01-20T11:14:10.831Z,55.20
2019-01-20T11:19:10.469Z,55.10
2019-01-20T11:24:11.902Z,59.73
2019-01-20T11:29:11.995Z,50.60
2019-01-20T11:34:12.830Z,57.60
2019-01-20T11:39:13.675Z,47.87
2019-01-20T11:44:17.025Z,53.00
2019-01-20T11:49:14.610Z,53.27
2019-01-20T11:54:14.177Z,45.73
2019-01-20T11:59:13.762Z,52.10
2019-01-20T12:04:14.125Z,50.63
2019-01-20T12:09:13.775Z,42.60
2019-01-20T12:14:13.355Z,36.07
2019-01-20T12:19:12.961Z,46.37
2019-01-20T12:24:12.553Z,44.10
2019-01-20T12:29:12.132Z,50.53
2019-01-20T12:34:11.770Z,53.70
2019-01-20T12:39:11.345Z,44.97
2019-01-20T12:44:10.909Z,41.47
2019-01-20T12:49:10.530Z,60.43
2019-01-20T12:54:10.147Z,44.40
2019-01-20T12:59:10.698Z,37.40
2019-01-20T13:04:10.260Z,42.90
2019-01-20T13:09:10.179Z,45.03
2019-01-20T13:14:09.818Z,54.73
2019-01-20T13:19:09.383Z,45.60
2019-01-20T13:24:08.976Z,43.60
2019-01-20T13:29:08.528Z,44.67
2019-01-20T13:34:08.098Z,40.70
2019-01-20T13:39:11.334Z,36.27
2019-01-20T13:44:10.914Z,44.50
2019-01-20T13:49:10.860Z,27.70
2019-01-20T13:54:10.474Z,39.10
2019-01-20T13:59:10.053Z,35.27
2019-01-20T14:04:09.585Z,44.53
2019-01-20T14:09:09.474Z,40.27
2019-01-20T14:14:09.553Z,47.10
2019-01-20T14:19:11.571Z,41.53
2019-01-20T14:24:11.891Z,42.03
2019-01-20T14:29:11.441Z,34.77
2019-01-20T14:34:11.139Z,38.43
2019-01-20T14:39:12.813Z,39.27
2019-01-20T14:44:12.356Z,49.10
2019-01-20T14:49:11.977Z,46.50
2019-01-20T14:54:11.534Z,42.93
2019-01-20T14:59:11.214Z,40.23
2019-01-20T15:04:14.528Z,45.17
2019-01-20T15:09:14.300Z,43.30
2019-01-20T15:14:17.244Z,46.60
2019-01-20T15:19:16.889Z,37.27
2019-01-20T15:24:16.525Z,39.60
2019-01-20T15:29:16.098Z,37.40
2019-01-20T15:34:15.673Z,41.37
2019-01-20T15:39:15.226Z,48.97
2019-01-20T15:44:14.812Z,44.80
2019-01-20T15:49:14.341Z,41.70
2019-01-20T15:54:13.895Z,40.87
2019-01-20T15:59:14.048Z,41.77
2019-01-20T16:04:13.669Z,40.40
2019-01-20T16:09:14.235Z,43.07
2019-01-20T16:14:14.102Z,35.40
2019-01-20T16:19:13.663Z,40.60
2019-01-20T16:24:13.259Z,38.70
2019-01-20T16:29:12.845Z,39.30
2019-01-20T16:34:12.390Z,32.93
2019-01-20T16:39:12.083Z,45.07
2019-01-20T16:44:11.661Z,43.57
2019-01-20T16:49:11.234Z,46.03
2019-01-20T16:54:10.898Z,36.40
2019-01-20T16:59:10.481Z,44.10
2019-01-20T17:04:10.132Z,48.60
2019-01-20T17:09:10.329Z,41.17
2019-01-20T17:14:09.893Z,33.27
2019-01-20T17:19:09.654Z,39.03
2019-01-20T17:24:09.347Z,40.37
2019-01-20T17:29:08.925Z,39.70
2019-01-20T17:34:08.521Z,41.23
2019-01-20T17:39:12.161Z,40.63
2019-01-20T17:44:11.448Z,41.07
2019-01-20T17:49:11.080Z,39.10
2019-01-20T17:54:10.638Z,42.77
2019-01-20T17:59:10.201Z,47.27
2019-01-20T18:04:09.779Z,38.03
2019-01-20T18:09:11.217Z,54.20
2019-01-20T18:14:10.841Z,50.67
2019-01-20T18:19:10.401Z,42.27
2019-01-20T18:24:10.095Z,48.83
2019-01-20T18:29:09.694Z,45.47
2019-01-20T18:34:09.257Z,44.97
2019-01-20T18:39:09.074Z,44.47
2019-01-20T18:44:09.447Z,44.90
2019-01-20T18:49:09.121Z,45.63
2019-01-20T18:54:08.686Z,54.13
2019-01-20T18:59:08.254Z,40.43
2019-01-20T19:04:07.809Z,36.00
2019-01-20T19:09:09.621Z,45.47
2019-01-20T19:14:09.438Z,49.30
2019-01-20T19:19:09.173Z,49.33
2019-01-20T19:24:08.732Z,47.37
2019-01-20T19:29:08.664Z,43.30
2019-01-20T19:34:08.213Z,56.03
2019-01-20T19:39:09.565Z,53.13
2019-01-20T19:44:09.230Z,52.37
2019-01-20T19:49:08.771Z,53.00
2019-01-20T19:54:08.383Z,62.47
2019-01-20T19:59:08.099Z,50.23
2019-01-20T20:04:10.328Z,66.47
2019-01-20T20:09:13.007Z,58.40
2019-01-20T20:14:12.620Z,55.60
2019-01-20T20:19:12.185Z,48.53
2019-01-20T20:24:11.869Z,50.23
2019-01-20T20:29:11.493Z,62.80
2019-01-20T20:34:11.217Z,53.67
2019-01-20T20:39:10.906Z,50.27
2019-01-20T20:44:11.421Z,63.13
2019-01-20T20:49:11.090Z,45.00
2019-01-20T20:54:10.685Z,54.23
2019-01-20T20:59:10.715Z,52.17
2019-01-20T21:04:10.302Z,56.40
2019-01-20T21:09:10.089Z,50.50
2019-01-20T21:14:09.698Z,48.13
2019-01-20T21:19:09.245Z,54.43
2019-01-20T21:24:08.898Z,52.97
2019-01-20T21:29:08.643Z,51.50
2019-01-20T21:34:08.359Z,54.10
2019-01-20T21:39:09.338Z,48.93
2019-01-20T21:44:09.215Z,38.27
2019-01-20T21:49:08.830Z,42.57
2019-01-20T21:54:08.402Z,43.17
2019-01-20T21:59:07.922Z,44.53
2019-01-20T22:04:07.556Z,42.23
2019-01-20T22:09:08.012Z,43.77
2019-01-20T22:14:08.541Z,55.17
2019-01-20T22:19:08.103Z,42.23
2019-01-20T22:24:07.795Z,34.93
2019-01-20T22:29:07.486Z,42.70
2019-01-20T22:34:07.089Z,48.60
2019-01-20T22:39:08.442Z,45.10
2019-01-20T22:44:27.677Z,40.93
2019-01-20T22:49:28.099Z,34.70
2019-01-20T22:54:28.062Z,51.57
2019-01-20T22:59:27.915Z,38.03
2019-01-20T23:04:28.185Z,41.00
2019-01-20T23:09:27.837Z,36.80
2019-01-20T23:14:27.405Z,42.27
2019-01-20T23:20:05.552Z,45.07
2019-01-20T23:25:05.642Z,45.90
2019-01-20T23:30:07.231Z,39.00
2019-01-20T23:35:07.164Z,40.03
2019-01-20T23:40:07.670Z,40.83
2019-01-20T23:45:09.366Z,42.33
2019-01-20T23:50:09.997Z,40.80
2019-01-20T23:55:10.505Z,44.13
